Time;durP1;ratioP1;P1;durP2;ratioP2;P2;SDS_P1;SDS_P2;PMS_P1;PMS_P2;Temp;Humidity;BMP_temperature;BMP_pressure;BME280_temperature;BME280_humidity;BME280_pressure;Samples;Min_cycle;Max_cycle;Signal;HPM_P1;HPM_P2
2023/09/23 00:00:18;;;;;;;2.70;2.50;;;19.60;91.40;;;;;;4963494;28;20460;-73
2023/09/23 00:02:44;;;;;;;3.00;2.70;;;19.60;91.40;;;;;;4931715;28;20540;-72
2023/09/23 00:05:11;;;;;;;2.57;2.37;;;19.60;91.40;;;;;;4965000;28;20457;-73
2023/09/23 00:07:41;;;;;;;2.07;1.97;;;19.60;91.40;;;;;;4947561;28;20465;-73
2023/09/23 00:10:11;;;;;;;3.07;2.60;;;19.60;91.40;;;;;;4965053;28;20443;-73
2023/09/23 00:12:38;;;;;;;2.30;2.10;;;19.60;91.40;;;;;;4947623;28;20461;-73
2023/09/23 00:15:07;;;;;;;2.60;2.40;;;19.50;91.40;;;;;;4979192;28;20481;-72
2023/09/23 00:17:36;;;;;;;2.73;2.53;;;19.50;91.30;;;;;;4964585;28;20430;-72
2023/09/23 00:20:17;;;;;;;3.47;2.67;;;19.50;91.30;;;;;;4963583;28;20427;-72
2023/09/23 00:22:46;;;;;;;2.70;2.50;;;19.50;91.30;;;;;;4947690;28;20461;-73
2023/09/23 00:25:13;;;;;;;3.73;2.83;;;19.50;91.30;;;;;;4947090;28;20453;-73
2023/09/23 00:27:42;;;;;;;2.63;2.43;;;19.50;91.30;;;;;;4947022;28;20988;-72
2023/09/23 00:30:12;;;;;;;2.57;2.37;;;19.40;91.30;;;;;;4931296;28;20438;-72
2023/09/23 00:32:44;;;;;;;2.53;2.33;;;19.50;91.30;;;;;;4965045;28;20456;-73
2023/09/23 00:35:12;;;;;;;4.03;2.10;;;19.40;91.30;;;;;;4939567;28;20434;-73
2023/09/23 00:37:43;;;;;;;2.83;2.63;;;19.50;91.30;;;;;;4927699;29;20434;-72
2023/09/23 00:40:16;;;;;;;3.00;2.80;;;19.40;91.30;;;;;;4961111;28;20535;-72
2023/09/23 00:42:47;;;;;;;2.90;2.70;;;19.40;91.30;;;;;;4962744;28;20458;-72
2023/09/23 00:45:19;;;;;;;3.00;2.70;;;19.40;91.30;;;;;;4946933;28;20971;-73
2023/09/23 00:47:46;;;;;;;2.80;2.60;;;19.40;91.30;;;;;;4946909;28;20489;-73
2023/09/23 00:50:18;;;;;;;2.40;2.20;;;19.40;91.30;;;;;;4962629;28;20469;-73
2023/09/23 00:52:52;;;;;;;2.43;2.23;;;19.40;91.30;;;;;;4946468;28;20512;-72
2023/09/23 00:55:24;;;;;;;2.30;2.07;;;19.40;91.30;;;;;;4963966;28;20430;-73
2023/09/23 00:57:53;;;;;;;2.63;2.43;;;19.40;91.30;;;;;;4964461;28;20520;-72
2023/09/23 01:00:30;;;;;;;2.57;2.37;;;19.40;91.30;;;;;;4956529;28;21184;-72
2023/09/23 01:02:59;;;;;;;2.43;2.23;;;19.40;91.30;;;;;;4962794;28;21004;-73
2023/09/23 01:05:29;;;;;;;2.63;2.43;;;19.30;91.30;;;;;;4946540;28;21135;-72
2023/09/23 01:08:04;;;;;;;4.37;2.63;;;19.30;91.30;;;;;;4945880;28;20560;-73
2023/09/23 01:10:30;;;;;;;2.90;2.70;;;19.30;91.80;;;;;;4946453;28;20453;-73
2023/09/23 01:12:57;;;;;;;2.40;2.30;;;19.30;92.20;;;;;;4929956;28;20458;-72
2023/09/23 01:15:28;;;;;;;3.10;2.60;;;19.30;92.30;;;;;;4946070;28;20442;-73
2023/09/23 01:17:57;;;;;;;2.63;2.10;;;19.30;91.90;;;;;;4962108;28;21070;-72
2023/09/23 01:20:25;;;;;;;2.73;2.53;;;19.50;92.40;;;;;;4946129;28;20529;-73
2023/09/23 01:22:54;;;;;;;2.47;2.30;;;19.30;92.20;;;;;;4946176;28;20760;-73
2023/09/23 01:25:21;;;;;;;2.57;2.37;;;19.20;92.20;;;;;;4955477;28;20469;-73
2023/09/23 01:27:47;;;;;;;2.60;2.40;;;19.30;92.20;;;;;;4963247;28;21169;-73
2023/09/23 01:30:29;;;;;;;3.30;3.00;;;19.30;92.40;;;;;;4961925;28;20443;-73
2023/09/23 01:32:56;;;;;;;2.60;2.40;;;19.30;92.50;;;;;;4962151;28;20273;-72
2023/09/23 01:35:24;;;;;;;2.90;2.70;;;19.30;92.50;;;;;;4962139;28;20441;-72
2023/09/23 01:37:53;;;;;;;3.00;2.80;;;19.20;92.30;;;;;;4938412;28;20426;-72
2023/09/23 01:40:20;;;;;;;3.17;2.90;;;19.30;92.20;;;;;;4937815;28;20497;-72
2023/09/23 01:42:49;;;;;;;3.07;2.87;;;19.30;92.10;;;;;;4929675;28;20492;-72
2023/09/23 01:45:15;;;;;;;3.10;2.80;;;19.20;92.00;;;;;;4961420;28;20446;-73
2023/09/23 01:47:44;;;;;;;2.93;2.73;;;19.20;91.90;;;;;;4963488;28;20462;-72
2023/09/23 01:50:18;;;;;;;3.20;2.90;;;19.20;91.80;;;;;;4961525;28;21009;-72
2023/09/23 01:52:47;;;;;;;3.00;2.80;;;19.20;91.50;;;;;;4961691;28;20461;-73
2023/09/23 01:55:16;;;;;;;3.13;2.83;;;19.20;91.50;;;;;;4945806;28;20926;-72
2023/09/23 01:57:42;;;;;;;2.87;2.67;;;19.20;91.50;;;;;;4962108;28;20806;-73
2023/09/23 02:00:14;;;;;;;3.90;2.73;;;19.20;91.30;;;;;;4961878;28;20431;-72
2023/09/23 02:02:41;;;;;;;3.40;3.00;;;19.20;91.20;;;;;;4945505;28;20462;-72
2023/09/23 02:05:11;;;;;;;3.10;2.90;;;19.20;91.30;;;;;;4943935;28;20513;-73
2023/09/23 02:07:39;;;;;;;3.47;3.17;;;19.20;91.20;;;;;;4961300;28;20437;-73
2023/09/23 02:10:08;;;;;;;3.50;3.07;;;19.10;91.20;;;;;;4945669;28;20439;-73
2023/09/23 02:12:35;;;;;;;3.07;2.80;;;19.10;91.20;;;;;;4945452;28;20474;-73
2023/09/23 02:15:01;;;;;;;3.20;2.90;;;19.10;91.20;;;;;;4963042;28;21265;-73
2023/09/23 02:17:30;;;;;;;3.10;2.90;;;19.10;91.20;;;;;;4937364;28;20430;-73
2023/09/23 02:19:57;;;;;;;3.30;3.00;;;19.10;91.20;;;;;;4960049;28;20430;-73
2023/09/23 02:22:23;;;;;;;3.20;3.00;;;19.10;91.20;;;;;;4945276;28;21033;-72
2023/09/23 02:24:51;;;;;;;3.20;3.00;;;19.10;91.20;;;;;;4960961;28;20559;-73
2023/09/23 02:27:17;;;;;;;3.23;2.80;;;19.10;91.20;;;;;;4944871;28;20447;-73
2023/09/23 02:29:43;;;;;;;3.40;3.10;;;19.10;91.20;;;;;;4962761;28;20555;-72
2023/09/23 02:32:09;;;;;;;3.07;2.77;;;19.10;91.20;;;;;;4962480;28;21003;-73
2023/09/23 02:34:36;;;;;;;3.03;2.70;;;19.10;91.20;;;;;;4961411;28;21294;-73
2023/09/23 02:37:05;;;;;;;3.03;2.73;;;19.10;91.20;;;;;;4929654;28;20447;-72
2023/09/23 02:39:31;;;;;;;4.37;3.30;;;19.10;91.20;;;;;;4944847;28;20430;-73
2023/09/23 02:41:59;;;;;;;2.60;2.40;;;19.10;91.20;;;;;;4960628;28;20461;-73
2023/09/23 02:44:27;;;;;;;3.23;2.57;;;19.00;91.20;;;;;;4944873;28;20461;-73
2023/09/23 02:46:53;;;;;;;3.00;2.80;;;19.00;91.20;;;;;;4944498;28;20471;-73
2023/09/23 02:49:21;;;;;;;3.10;2.80;;;19.00;91.20;;;;;;4952505;28;20462;-72
2023/09/23 02:51:49;;;;;;;3.43;2.60;;;19.00;91.20;;;;;;4944507;28;20465;-72
2023/09/23 02:54:17;;;;;;;3.57;2.70;;;19.00;91.20;;;;;;4962008;28;21319;-73
2023/09/23 02:56:46;;;;;;;4.50;3.40;;;19.00;91.20;;;;;;4944491;28;20445;-72
2023/09/23 02:59:15;;;;;;;2.93;2.63;;;19.00;91.20;;;;;;4960383;28;20871;-73
2023/09/23 03:01:48;;;;;;;2.60;2.40;;;19.00;91.20;;;;;;4961863;28;20532;-73
2023/09/23 03:04:19;;;;;;;2.70;2.50;;;18.90;91.20;;;;;;4960187;28;20752;-72
2023/09/23 03:06:53;;;;;;;3.83;2.67;;;19.00;91.20;;;;;;4944036;28;20532;-73
2023/09/23 03:09:19;;;;;;;4.77;2.70;;;19.00;91.20;;;;;;4943572;28;20476;-72
2023/09/23 03:11:56;;;;;;;2.90;2.60;;;19.00;91.20;;;;;;4959243;28;20497;-73
2023/09/23 03:14:42;;;;;;;2.87;2.63;;;18.90;91.20;;;;;;4961213;28;20544;-73
2023/09/23 03:17:13;;;;;;;3.10;2.30;;;19.00;91.20;;;;;;4927973;28;20457;-73
2023/09/23 03:19:40;;;;;;;2.40;2.20;;;18.90;91.20;;;;;;4935461;29;20456;-73
2023/09/23 03:22:07;;;;;;;3.63;3.07;;;18.90;91.20;;;;;;4959553;28;20914;-73
2023/09/23 03:24:36;;;;;;;2.53;2.33;;;18.90;91.20;;;;;;4959895;28;20450;-73
2023/09/23 03:27:03;;;;;;;3.53;2.27;;;18.90;91.20;;;;;;4944245;28;20468;-72
2023/09/23 03:29:30;;;;;;;2.40;2.20;;;18.90;91.20;;;;;;4941232;29;21103;-72
2023/09/23 03:32:02;;;;;;;3.43;2.37;;;18.80;91.20;;;;;;4974470;28;20892;-72
2023/09/23 03:34:29;;;;;;;3.03;2.73;;;18.90;91.20;;;;;;4966588;28;20437;-72
2023/09/23 03:36:56;;;;;;;3.20;2.40;;;18.80;91.20;;;;;;4966474;28;20441;-73
2023/09/23 03:39:22;;;;;;;2.23;2.03;;;18.80;91.50;;;;;;4950456;28;20459;-72
2023/09/23 03:41:50;;;;;;;2.17;1.97;;;18.80;91.50;;;;;;4967662;28;21259;-72
2023/09/23 03:44:16;;;;;;;2.80;2.23;;;18.80;91.70;;;;;;4949664;28;20438;-72
2023/09/23 03:46:45;;;;;;;2.63;2.43;;;18.80;91.60;;;;;;4949977;28;20427;-72
2023/09/23 03:49:13;;;;;;;2.10;1.90;;;18.80;91.70;;;;;;4966081;28;20969;-72
2023/09/23 03:51:39;;;;;;;2.53;2.33;;;18.80;91.70;;;;;;4965808;28;20457;-72
2023/09/23 03:54:11;;;;;;;2.47;2.20;;;18.80;91.80;;;;;;4949424;28;20468;-73
2023/09/23 03:56:42;;;;;;;2.20;2.00;;;18.80;91.80;;;;;;4941591;29;20439;-73
2023/09/23 03:59:11;;;;;;;2.33;2.13;;;18.80;91.90;;;;;;4934015;28;20500;-73
2023/09/23 04:01:37;;;;;;;2.40;2.17;;;18.80;91.90;;;;;;4965673;28;20442;-73
2023/09/23 04:04:04;;;;;;;2.03;1.93;;;18.80;91.90;;;;;;4949877;28;20442;-73
2023/09/23 04:06:33;;;;;;;2.80;2.30;;;18.80;92.00;;;;;;4949703;28;20237;-72
2023/09/23 04:08:59;;;;;;;3.43;2.73;;;18.70;91.90;;;;;;4965639;28;20528;-72
2023/09/23 04:11:28;;;;;;;2.70;2.40;;;18.80;91.80;;;;;;4968030;28;20891;-73
2023/09/23 04:13:54;;;;;;;3.03;2.27;;;18.70;91.70;;;;;;4969151;28;20433;-72
2023/09/23 04:16:21;;;;;;;2.30;2.13;;;18.70;91.90;;;;;;4967411;28;20478;-72
2023/09/23 04:18:51;;;;;;;2.00;1.80;;;18.70;91.70;;;;;;4969148;28;20440;-72
2023/09/23 04:21:22;;;;;;;2.40;2.07;;;18.70;91.60;;;;;;4967538;28;20449;-72
2023/09/23 04:23:52;;;;;;;2.23;2.03;;;18.70;91.60;;;;;;4952198;28;20441;-72
2023/09/23 04:26:24;;;;;;;2.67;2.10;;;18.70;91.50;;;;;;4967551;28;20442;-72
2023/09/23 04:28:53;;;;;;;2.50;2.00;;;18.70;91.50;;;;;;4967184;28;21124;-72
2023/09/23 04:31:19;;;;;;;2.43;2.10;;;18.70;91.30;;;;;;4968203;28;20528;-72
2023/09/23 04:33:48;;;;;;;2.63;2.00;;;18.70;91.20;;;;;;4968440;28;20434;-72
2023/09/23 04:36:16;;;;;;;3.10;1.80;;;18.70;91.20;;;;;;4967946;28;20437;-72
2023/09/23 04:38:43;;;;;;;2.27;2.07;;;18.60;91.10;;;;;;4950818;28;20520;-72
2023/09/23 04:41:10;;;;;;;2.50;2.00;;;18.60;91.10;;;;;;4967158;28;21310;-73
2023/09/23 04:43:39;;;;;;;6.60;2.30;;;18.60;91.10;;;;;;4964176;28;20504;-73
2023/09/23 04:46:14;;;;;;;2.53;2.33;;;18.60;91.10;;;;;;4964616;28;20430;-73
2023/09/23 04:48:44;;;;;;;2.60;2.40;;;18.60;91.10;;;;;;4964943;28;20568;-73
2023/09/23 04:51:12;;;;;;;3.87;2.10;;;18.60;91.10;;;;;;4963126;28;20457;-73
2023/09/23 04:53:38;;;;;;;2.10;2.00;;;18.60;91.10;;;;;;4963310;28;20460;-72
2023/09/23 04:56:08;;;;;;;4.30;2.67;;;18.60;91.10;;;;;;4948069;28;20289;-73
2023/09/23 04:58:35;;;;;;;2.60;2.40;;;18.60;91.20;;;;;;4963663;28;20427;-71
2023/09/23 05:01:07;;;;;;;3.20;2.90;;;18.60;91.10;;;;;;4963040;28;20832;-73
2023/09/23 05:03:36;;;;;;;2.50;2.30;;;18.50;91.10;;;;;;4962456;28;20552;-69
2023/09/23 05:06:02;;;;;;;2.40;2.20;;;18.50;91.20;;;;;;4962054;28;20480;-72
2023/09/23 05:08:32;;;;;;;2.50;2.30;;;18.50;91.20;;;;;;4946296;28;20480;-71
2023/09/23 05:10:58;;;;;;;3.50;3.00;;;18.50;91.20;;;;;;4963531;28;20418;-69
2023/09/23 05:13:24;;;;;;;2.30;2.10;;;18.50;91.10;;;;;;4961876;28;21213;-69
2023/09/23 05:15:50;;;;;;;3.40;2.17;;;18.60;91.60;;;;;;4942513;29;20221;-69
2023/09/23 05:18:17;;;;;;;2.87;1.97;;;18.50;91.20;;;;;;4962662;28;20430;-69
2023/09/23 05:20:47;;;;;;;2.63;1.90;;;18.50;91.10;;;;;;4963041;28;20672;-69
2023/09/23 05:23:14;;;;;;;2.50;1.87;;;18.50;91.20;;;;;;4960394;28;20537;-69
2023/09/23 05:25:41;;;;;;;2.20;2.10;;;18.50;91.20;;;;;;4957172;28;20461;-68
2023/09/23 05:28:07;;;;;;;2.27;2.07;;;18.50;91.20;;;;;;4949122;28;20633;-69
2023/09/23 05:30:36;;;;;;;2.47;2.23;;;18.50;91.20;;;;;;4959305;28;20437;-70
2023/09/23 05:33:06;;;;;;;2.00;1.90;;;18.50;91.30;;;;;;4960472;28;20457;-69
2023/09/23 05:35:37;;;;;;;2.20;2.03;;;18.50;91.30;;;;;;4961910;28;20464;-69
2023/09/23 05:38:04;;;;;;;1.70;1.60;;;18.50;91.30;;;;;;4960966;28;20430;-69
2023/09/23 05:40:36;;;;;;;1.87;1.77;;;18.50;91.30;;;;;;4941836;28;20441;-70
2023/09/23 05:43:06;;;;;;;2.30;2.10;;;18.50;91.40;;;;;;4954928;28;21230;-68
2023/09/23 05:45:37;;;;;;;1.83;1.60;;;18.40;91.50;;;;;;4959264;28;20806;-69
2023/09/23 05:48:04;;;;;;;2.53;1.60;;;18.40;91.50;;;;;;4960702;28;20461;-70
2023/09/23 05:50:33;;;;;;;2.70;1.90;;;18.50;91.50;;;;;;4943198;28;20430;-69
2023/09/23 05:52:59;;;;;;;2.20;2.00;;;18.40;91.80;;;;;;4959107;28;21252;-69
2023/09/23 05:55:25;;;;;;;2.73;2.10;;;18.40;91.50;;;;;;4942621;28;20500;-69
2023/09/23 05:57:53;;;;;;;2.60;2.20;;;18.40;91.60;;;;;;4960452;28;20464;-69
2023/09/23 06:00:19;;;;;;;2.40;2.00;;;18.40;91.60;;;;;;4959765;28;20471;-70
2023/09/23 06:02:45;;;;;;;2.23;2.03;;;18.40;91.60;;;;;;4960235;28;20624;-70
2023/09/23 06:05:11;;;;;;;2.47;1.87;;;18.40;91.50;;;;;;4960402;28;20481;-70
2023/09/23 06:07:38;;;;;;;6.50;2.07;;;18.40;91.60;;;;;;4960388;28;20478;-70
2023/09/23 06:10:05;;;;;;;4.23;1.80;;;18.40;91.70;;;;;;4942887;28;20559;-68
2023/09/23 06:12:32;;;;;;;1.90;1.77;;;18.40;91.80;;;;;;4942632;28;20483;-73
2023/09/23 06:15:07;;;;;;;2.87;1.80;;;18.40;91.80;;;;;;4942394;28;20545;-71
2023/09/23 06:17:37;;;;;;;2.73;1.80;;;18.40;91.80;;;;;;4959016;28;20452;-71
2023/09/23 06:20:03;;;;;;;2.30;2.10;;;18.40;91.70;;;;;;4943085;28;20474;-71
2023/09/23 06:22:35;;;;;;;2.53;1.90;;;18.40;91.80;;;;;;4958954;28;20836;-72
2023/09/23 06:25:02;;;;;;;3.33;1.83;;;18.30;91.80;;;;;;4959497;28;20450;-73
2023/09/23 06:27:29;;;;;;;2.00;1.90;;;18.30;91.70;;;;;;4960784;28;20456;-69
2023/09/23 06:29:55;;;;;;;2.03;1.60;;;18.30;91.80;;;;;;4959578;28;20999;-71
2023/09/23 06:32:24;;;;;;;2.77;1.80;;;18.30;91.80;;;;;;4958755;28;20226;-71
2023/09/23 06:34:50;;;;;;;2.63;2.30;;;18.30;91.80;;;;;;4958289;28;20441;-70
2023/09/23 06:37:21;;;;;;;2.27;2.13;;;18.30;91.90;;;;;;4959190;28;20628;-71
2023/09/23 06:39:49;;;;;;;2.40;1.90;;;18.30;91.90;;;;;;4942961;28;20526;-71
2023/09/23 06:42:17;;;;;;;2.40;1.80;;;18.30;91.80;;;;;;4960499;28;20485;-71
2023/09/23 06:44:48;;;;;;;2.30;2.10;;;18.30;91.90;;;;;;4959008;28;20541;-71
2023/09/23 06:47:17;;;;;;;2.30;2.10;;;18.30;91.90;;;;;;4958785;28;20810;-71
2023/09/23 06:49:43;;;;;;;3.30;2.03;;;18.30;91.80;;;;;;4959765;28;20478;-71
2023/09/23 06:52:09;;;;;;;3.40;2.10;;;18.40;91.90;;;;;;4942791;28;20540;-71
2023/09/23 06:54:39;;;;;;;2.10;1.87;;;18.30;91.80;;;;;;4960290;28;20425;-71
2023/09/23 06:57:05;;;;;;;1.93;1.77;;;18.20;91.70;;;;;;4958638;28;20489;-71
2023/09/23 06:59:31;;;;;;;4.23;2.27;;;18.30;91.90;;;;;;4959549;28;20486;-71
2023/09/23 07:01:57;;;;;;;2.00;1.83;;;18.30;92.00;;;;;;4958116;28;20496;-71
2023/09/23 07:04:23;;;;;;;2.33;1.77;;;18.20;91.90;;;;;;4960503;28;20191;-71
2023/09/23 07:06:51;;;;;;;2.43;2.10;;;18.20;91.90;;;;;;4958253;28;21100;-71
2023/09/23 07:09:17;;;;;;;2.13;1.90;;;18.30;91.80;;;;;;4943238;28;20485;-71
2023/09/23 07:11:43;;;;;;;2.57;1.83;;;18.20;91.70;;;;;;4960034;28;20781;-71
2023/09/23 07:14:09;;;;;;;2.80;1.90;;;18.20;91.80;;;;;;4980128;23;21311;-68
2023/09/23 07:16:38;;;;;;;2.30;1.70;;;18.20;91.80;;;;;;4963691;28;20468;-68
2023/09/23 07:19:04;;;;;;;2.50;2.10;;;18.20;91.80;;;;;;4973595;28;20433;-68
2023/09/23 07:21:30;;;;;;;2.80;1.97;;;18.20;91.80;;;;;;4977328;28;20491;-68
2023/09/23 07:23:57;;;;;;;3.77;2.00;;;18.20;91.60;;;;;;4983732;28;20443;-68
2023/09/23 07:26:24;;;;;;;2.57;1.77;;;18.20;91.70;;;;;;4975101;28;20924;-68
2023/09/23 07:28:51;;;;;;;2.40;1.80;;;18.20;91.60;;;;;;4994716;28;20562;-68
2023/09/23 07:31:21;;;;;;;5.77;2.50;;;18.20;91.70;;;;;;4970955;28;21217;-68
2023/09/23 07:33:52;;;;;;;3.73;1.93;;;18.20;91.80;;;;;;4987353;28;20892;-68
2023/09/23 07:36:18;;;;;;;2.50;2.30;;;18.20;91.70;;;;;;4981245;28;20448;-68
2023/09/23 07:38:46;;;;;;;2.70;2.17;;;18.20;91.80;;;;;;4965661;28;20423;-68
2023/09/23 07:41:12;;;;;;;5.30;2.07;;;18.20;91.80;;;;;;4970955;28;20440;-68
2023/09/23 07:43:40;;;;;;;2.37;1.83;;;18.20;91.80;;;;;;4967490;28;20460;-68
2023/09/23 07:46:08;;;;;;;2.60;1.70;;;18.20;91.80;;;;;;4980467;28;21107;-68
2023/09/23 07:48:34;;;;;;;2.47;2.27;;;18.20;91.90;;;;;;4967038;28;20566;-68
2023/09/23 07:51:00;;;;;;;2.30;2.10;;;18.20;91.90;;;;;;4976653;28;20890;-68
2023/09/23 07:53:26;;;;;;;4.07;1.70;;;18.20;91.90;;;;;;4953178;28;21017;-68
2023/09/23 07:55:55;;;;;;;2.50;2.30;;;18.20;91.90;;;;;;4946831;28;20197;-68
2023/09/23 07:58:23;;;;;;;3.63;2.20;;;18.20;92.00;;;;;;4963741;28;20846;-68
2023/09/23 08:00:49;;;;;;;2.30;2.10;;;18.20;92.00;;;;;;4980350;28;20432;-68
2023/09/23 08:03:15;;;;;;;2.30;1.90;;;18.10;92.10;;;;;;4995686;28;20499;-68
2023/09/23 08:05:42;;;;;;;2.93;2.27;;;18.10;92.20;;;;;;4979896;28;20494;-68
2023/09/23 08:08:10;;;;;;;2.00;1.77;;;18.10;92.20;;;;;;4968687;28;20470;-68
2023/09/23 08:10:36;;;;;;;3.63;2.40;;;18.10;92.10;;;;;;4968280;28;20429;-68
2023/09/23 08:13:02;;;;;;;5.33;2.53;;;18.20;92.10;;;;;;4988643;28;20450;-68
2023/09/23 08:15:28;;;;;;;3.03;2.33;;;18.10;92.10;;;;;;4972426;28;20767;-68
2023/09/23 08:17:57;;;;;;;4.13;2.23;;;18.10;92.00;;;;;;4952319;28;20754;-68
2023/09/23 08:20:27;;;;;;;2.83;2.20;;;18.10;92.10;;;;;;4984145;28;20440;-68
2023/09/23 08:22:53;;;;;;;4.10;2.10;;;18.10;92.10;;;;;;4951679;28;20542;-68
2023/09/23 08:25:21;;;;;;;3.83;2.40;;;18.10;92.10;;;;;;4977655;28;20553;-68
2023/09/23 08:27:53;;;;;;;3.07;2.30;;;18.10;92.10;;;;;;4981363;28;20522;-68
2023/09/23 08:30:22;;;;;;;3.07;1.77;;;18.10;92.10;;;;;;4962971;28;20439;-68
2023/09/23 08:32:48;;;;;;;2.80;1.80;;;18.10;92.10;;;;;;4971507;28;20488;-68
2023/09/23 08:35:14;;;;;;;2.40;2.20;;;18.10;92.20;;;;;;4982383;28;21040;-69
2023/09/23 08:37:40;;;;;;;3.13;2.27;;;17.90;91.90;;;;;;4969415;28;20428;-68
2023/09/23 08:40:11;;;;;;;3.03;2.50;;;18.10;92.10;;;;;;4989225;28;20567;-68
2023/09/23 08:42:43;;;;;;;2.27;1.70;;;18.10;92.00;;;;;;4969165;28;20464;-68
2023/09/23 08:45:10;;;;;;;3.00;2.17;;;18.10;92.10;;;;;;4965768;28;20463;-68
2023/09/23 08:47:37;;;;;;;3.60;2.60;;;18.10;92.10;;;;;;4963855;28;20429;-68
2023/09/23 08:50:07;;;;;;;3.43;2.40;;;18.10;92.10;;;;;;4947922;28;20513;-68
2023/09/23 08:52:35;;;;;;;3.80;2.30;;;18.10;92.10;;;;;;4971795;28;21036;-68
2023/09/23 08:55:04;;;;;;;3.27;2.80;;;18.10;92.10;;;;;;4967249;28;20500;-68
2023/09/23 08:57:32;;;;;;;3.37;2.40;;;18.10;92.10;;;;;;5000468;28;20506;-68
2023/09/23 08:59:59;;;;;;;2.70;2.20;;;18.10;92.20;;;;;;4966040;28;21192;-68
2023/09/23 09:02:25;;;;;;;4.93;2.40;;;18.10;92.20;;;;;;4971187;28;20550;-68
2023/09/23 09:04:54;;;;;;;3.80;2.70;;;18.10;92.10;;;;;;4971148;28;20476;-68
2023/09/23 09:07:33;;;;;;;2.60;2.40;;;18.10;92.20;;;;;;4981631;28;21260;-68
2023/09/23 09:10:00;;;;;;;2.40;2.20;;;18.10;92.20;;;;;;4975729;28;21300;-68
2023/09/23 09:12:26;;;;;;;2.60;2.00;;;18.10;92.20;;;;;;4992676;28;20594;-68
2023/09/23 09:14:53;;;;;;;3.63;2.43;;;18.10;92.30;;;;;;4984545;28;21041;-68
2023/09/23 09:17:19;;;;;;;2.53;2.10;;;18.00;92.20;;;;;;4963339;28;20448;-68
2023/09/23 09:19:45;;;;;;;2.70;2.30;;;18.10;92.20;;;;;;4958116;28;20511;-68
2023/09/23 09:22:13;;;;;;;3.30;2.87;;;18.10;92.30;;;;;;4963288;28;20471;-68
2023/09/23 09:24:40;;;;;;;3.10;2.10;;;18.10;92.30;;;;;;4962666;28;20441;-68
2023/09/23 09:27:15;;;;;;;3.03;2.40;;;18.10;92.30;;;;;;4963267;28;21072;-69
2023/09/23 09:29:42;;;;;;;2.63;1.97;;;18.10;92.30;;;;;;4979073;28;20841;-70
2023/09/23 09:32:12;;;;;;;4.03;2.40;;;18.10;92.30;;;;;;4961589;28;20975;-69
2023/09/23 09:34:45;;;;;;;4.97;2.50;;;18.10;92.30;;;;;;4947596;28;20445;-69
2023/09/23 09:37:15;;;;;;;2.70;2.27;;;18.10;92.20;;;;;;4963588;28;21167;-69
2023/09/23 09:39:51;;;;;;;3.63;2.87;;;18.10;92.30;;;;;;4979154;28;20434;-69
2023/09/23 09:42:33;;;;;;;2.80;2.60;;;18.10;92.30;;;;;;4951751;28;20890;-69
2023/09/23 09:45:03;;;;;;;7.57;2.60;;;18.10;92.20;;;;;;4947595;28;20452;-69
2023/09/23 09:47:29;;;;;;;2.30;2.10;;;18.10;92.20;;;;;;4947067;28;20551;-69
2023/09/23 09:49:59;;;;;;;3.23;2.57;;;18.10;92.20;;;;;;4963293;28;20457;-69
2023/09/23 09:52:26;;;;;;;4.37;2.23;;;18.20;92.30;;;;;;4939617;28;20456;-70
2023/09/23 09:54:58;;;;;;;3.30;2.60;;;18.20;92.40;;;;;;4962490;28;20539;-69
2023/09/23 09:57:29;;;;;;;2.50;2.30;;;18.20;92.40;;;;;;4976491;28;20459;-69
2023/09/23 10:00:15;;;;;;;4.37;2.10;;;18.20;92.30;;;;;;4980282;28;20432;-69
2023/09/23 10:02:43;;;;;;;4.30;2.80;;;18.20;92.30;;;;;;4973037;28;20503;-69
2023/09/23 10:05:17;;;;;;;2.43;2.23;;;18.20;92.30;;;;;;4962220;28;20959;-68
2023/09/23 10:07:54;;;;;;;2.70;2.50;;;18.20;92.30;;;;;;4977966;28;20440;-69
2023/09/23 10:10:31;;;;;;;2.80;2.60;;;18.20;92.30;;;;;;4965828;28;20456;-69
2023/09/23 10:13:19;;;;;;;3.23;2.83;;;18.20;92.20;;;;;;4947128;28;20464;-69
2023/09/23 10:15:48;;;;;;;2.60;2.40;;;18.20;92.20;;;;;;4962184;28;20735;-68
2023/09/23 10:18:18;;;;;;;3.33;2.50;;;18.20;92.20;;;;;;4976984;28;20437;-68
2023/09/23 10:20:54;;;;;;;4.57;2.90;;;18.20;92.10;;;;;;4980271;28;20444;-69
2023/09/23 10:23:22;;;;;;;2.90;2.70;;;18.20;92.10;;;;;;4963043;28;20531;-69
2023/09/23 10:25:50;;;;;;;3.23;2.40;;;18.30;92.10;;;;;;4963171;28;21249;-68
2023/09/23 10:28:22;;;;;;;3.07;2.47;;;18.30;92.20;;;;;;4963841;28;20548;-69
2023/09/23 10:31:00;;;;;;;3.37;2.77;;;18.30;92.10;;;;;;4961268;28;21220;-69
2023/09/23 10:33:29;;;;;;;2.43;2.23;;;18.30;92.10;;;;;;4963667;28;20448;-69
2023/09/23 10:35:56;;;;;;;2.40;2.20;;;18.30;92.10;;;;;;4961965;28;21101;-69
2023/09/23 10:38:28;;;;;;;2.47;2.17;;;18.30;92.10;;;;;;4953624;28;20439;-69
2023/09/23 10:40:54;;;;;;;5.20;2.40;;;18.30;92.10;;;;;;4975766;28;20445;-69
2023/09/23 10:43:24;;;;;;;3.00;2.70;;;18.30;92.00;;;;;;4955427;28;21273;-69
2023/09/23 10:45:53;;;;;;;2.70;2.50;;;18.30;92.00;;;;;;4945964;28;20486;-69
2023/09/23 10:48:19;;;;;;;5.00;2.40;;;18.30;92.00;;;;;;4961061;28;20496;-69
2023/09/23 10:50:45;;;;;;;3.47;2.70;;;18.30;92.00;;;;;;4978585;28;20437;-69
2023/09/23 10:53:14;;;;;;;5.23;3.50;;;18.40;92.00;;;;;;4976917;28;21302;-69
2023/09/23 10:55:40;;;;;;;3.63;2.87;;;18.30;92.00;;;;;;4951075;28;20954;-69
2023/09/23 10:58:08;;;;;;;2.83;2.30;;;18.30;92.00;;;;;;4961339;28;20498;-68
2023/09/23 11:00:36;;;;;;;2.77;2.47;;;18.40;92.00;;;;;;4979802;28;20436;-69
2023/09/23 11:03:18;;;;;;;3.10;2.90;;;18.40;92.00;;;;;;4969864;28;20448;-68
2023/09/23 11:05:45;;;;;;;3.00;2.53;;;18.40;92.00;;;;;;4960518;28;21194;-68
2023/09/23 11:08:15;;;;;;;4.00;2.60;;;18.40;92.00;;;;;;4945520;28;20476;-69
2023/09/23 11:10:44;;;;;;;3.00;2.33;;;18.40;92.00;;;;;;4955331;28;20479;-69
2023/09/23 11:13:11;;;;;;;6.40;2.90;;;18.40;91.90;;;;;;4978138;28;20468;-68
2023/09/23 11:15:43;;;;;;;4.10;2.70;;;18.40;91.90;;;;;;4978207;28;20522;-69
2023/09/23 11:18:13;;;;;;;3.40;2.60;;;18.50;91.90;;;;;;4945080;28;21177;-69
2023/09/23 11:20:46;;;;;;;2.87;2.37;;;18.50;92.00;;;;;;4979154;28;20535;-68
2023/09/23 11:23:15;;;;;;;3.00;2.80;;;18.50;91.90;;;;;;4961533;28;20456;-69
2023/09/23 11:25:46;;;;;;;3.00;2.80;;;18.50;91.90;;;;;;5048595;23;20527;-67
2023/09/23 11:28:26;;;;;;;3.27;3.03;;;18.50;91.80;;;;;;4930572;28;20472;-68
2023/09/23 11:30:54;;;;;;;1.90;1.80;;;18.50;91.80;;;;;;4963396;28;21262;-68
2023/09/23 11:33:24;;;;;;;3.80;2.90;;;18.60;91.90;;;;;;4979686;28;20448;-68
2023/09/23 11:35:50;;;;;;;2.90;2.70;;;18.50;91.80;;;;;;4959876;28;21098;-68
2023/09/23 11:38:18;;;;;;;2.90;2.60;;;18.50;91.80;;;;;;4976239;28;20456;-68
2023/09/23 11:40:46;;;;;;;3.30;3.10;;;18.60;91.80;;;;;;4939181;28;20449;-68
2023/09/23 11:43:12;;;;;;;2.70;2.50;;;18.60;91.80;;;;;;4969503;28;20460;-68
2023/09/23 11:45:41;;;;;;;2.60;2.40;;;18.60;91.70;;;;;;4955556;28;20523;-67
2023/09/23 11:48:09;;;;;;;3.50;2.27;;;18.60;91.60;;;;;;4951175;28;20463;-68
2023/09/23 11:50:36;;;;;;;3.37;2.50;;;18.60;91.50;;;;;;4978761;28;20466;-68
2023/09/23 11:53:02;;;;;;;3.07;2.30;;;18.70;91.60;;;;;;4946735;28;20457;-67
2023/09/23 11:55:32;;;;;;;2.50;2.30;;;18.70;91.50;;;;;;4963758;28;20443;-68
2023/09/23 11:57:59;;;;;;;2.47;2.20;;;18.70;91.90;;;;;;4948858;28;20470;-67
2023/09/23 12:00:25;;;;;;;2.80;2.60;;;18.70;91.50;;;;;;4974537;28;21009;-67
2023/09/23 12:02:51;;;;;;;5.00;2.20;;;18.70;91.40;;;;;;4974525;28;20801;-68
2023/09/23 12:05:20;;;;;;;3.50;2.80;;;18.70;91.40;;;;;;4973790;28;20460;-68
2023/09/23 12:07:46;;;;;;;4.10;3.33;;;18.70;91.40;;;;;;4948306;28;20459;-67
2023/09/23 12:10:16;;;;;;;3.93;2.80;;;18.80;91.40;;;;;;4964451;28;20461;-68
2023/09/23 12:12:45;;;;;;;2.40;2.20;;;19.00;91.50;;;;;;4982335;28;20491;-68
2023/09/23 12:15:17;;;;;;;3.47;2.50;;;18.80;91.30;;;;;;4964790;28;20435;-67
2023/09/23 12:17:43;;;;;;;2.83;2.50;;;18.80;91.30;;;;;;4964346;28;20436;-67
2023/09/23 12:20:11;;;;;;;2.90;2.33;;;18.80;91.20;;;;;;4972170;28;20972;-67
2023/09/23 12:22:38;;;;;;;2.17;1.97;;;18.80;91.20;;;;;;4977357;28;20467;-68
2023/09/23 12:25:06;;;;;;;4.07;2.77;;;18.80;91.20;;;;;;4959628;28;20447;-67
2023/09/23 12:27:33;;;;;;;2.80;2.60;;;18.90;91.30;;;;;;4970831;28;20445;-68
2023/09/23 12:30:01;;;;;;;3.27;2.23;;;18.90;91.30;;;;;;4990026;28;20548;-68
2023/09/23 12:32:33;;;;;;;2.20;2.00;;;18.90;91.30;;;;;;4960587;28;20552;-67
2023/09/23 12:34:59;;;;;;;2.37;2.10;;;18.90;91.30;;;;;;4964111;28;21042;-68
2023/09/23 12:37:27;;;;;;;2.53;2.20;;;18.90;91.30;;;;;;4975612;28;20435;-68
2023/09/23 12:39:55;;;;;;;3.23;2.03;;;18.90;91.30;;;;;;4966612;28;20447;-67
2023/09/23 12:42:23;;;;;;;3.10;2.60;;;19.00;91.30;;;;;;4971099;28;20459;-68
2023/09/23 12:44:51;;;;;;;2.20;2.03;;;19.00;91.30;;;;;;4951483;28;20490;-68
2023/09/23 12:47:17;;;;;;;2.47;2.27;;;19.00;91.30;;;;;;4975674;28;20438;-67
2023/09/23 12:49:43;;;;;;;3.40;2.43;;;19.10;91.30;;;;;;4938436;28;20866;-68
2023/09/23 12:52:12;;;;;;;2.53;2.37;;;19.10;91.30;;;;;;4968799;28;20449;-68
2023/09/23 12:54:46;;;;;;;4.07;2.60;;;19.10;91.30;;;;;;4989356;28;20430;-67